Latest Weather Observations for Bairnsdale

IDV60801

Issued at 4:32 pm EDT Thursday 21 March 2019 (issued every 10 minutes, with the page automatically refreshed every 10 minutes)

About weather observations | Map of weather stations | Latest weather observations for VIC | Other Formats
Station Details ID: 085279 Name: BAIRNSDALE AIRPORT Lat: -37.88 Lon: 147.57 Height: 49.4 m
Data from the previous 72 hours. | See also: Recent months at Bairnsdale
Date/Time
EDT
Temp
°C
App
Temp
°C
Dew
Point
°C
Rel
Hum
%
Delta-T
°C
Wind Press
QNH
hPa
Press
MSL
hPa
Rain since
9am
mm
Dir  Spd
km/h
Gust
km/h
Spd
kts
Gust
kts
21/04:30pm 21.6 19.7 17.6 78 2.5 ESE 24 32 13 17 1016.0 1015.9 -
21/04:00pm 22.6 19.9 17.5 73 3.2 ESE 28 35 15 19 1016.1 1016.0 -
21/03:30pm 22.3 19.7 17.9 76 2.7 ESE 28 33 15 18 1016.1 1016.0 -
21/03:00pm 23.3 21.8 18.6 75 3.0 ESE 24 32 13 17 1016.2 1016.1 0.0
21/02:30pm 22.1 20.0 18.1 78 2.5 ESE 26 33 14 18 1016.5 1016.4 -
21/02:00pm 22.6 20.9 18.2 76 2.8 ESE 24 32 13 17 1016.7 1016.6 -
21/01:30pm 22.7 20.9 17.8 74 3.1 ESE 24 32 13 17 1016.9 1016.8 -
21/01:00pm 22.6 21.0 17.5 73 3.2 ESE 22 28 12 15 1017.0 1016.9 -
21/12:30pm 22.7 20.8 17.6 73 3.2 ESE 24 30 13 16 1017.3 1017.2 -
21/12:00pm 22.4 21.7 17.3 73 3.1 E 17 20 9 11 1017.5 1017.4 -
21/11:30am 22.1 21.3 17.0 73 3.1 E 17 22 9 12 1017.6 1017.5 -
21/11:00am 21.8 21.3 17.0 74 2.9 E 15 22 8 12 1017.8 1017.7 -
21/10:30am 21.1 - 17.3 79 2.3 - - - - - 1017.7 1017.6 -
21/10:00am 21.0 20.8 17.6 81 2.1 ENE 15 22 8 12 1017.6 1017.5 0.0
21/09:30am 20.8 20.5 18.2 85 1.6 E 17 20 9 11 1017.3 1017.2 0.0
21/09:00am 19.5 19.2 18.2 92 0.8 ENE 17 22 9 12 1017.1 1017.0 0.0
21/08:30am 19.4 20.7 18.4 94 0.6 ENE 9 11 5 6 1017.0 1016.9 0.0
21/08:00am 18.9 20.1 18.2 96 0.4 E 9 13 5 7 1016.7 1016.6 0.0
21/07:30am 18.6 19.7 18.1 97 0.3 ENE 9 13 5 7 1016.3 1016.2 0.0
21/07:00am 18.5 19.6 18.0 97 0.3 ENE 9 13 5 7 1016.1 1016.0 0.0
21/06:30am 18.4 19.5 17.9 97 0.3 NE 9 11 5 6 1015.8 1015.7 0.0
21/06:00am 18.3 19.4 18.0 98 0.2 ENE 9 11 5 6 1015.7 1015.6 0.0
21/05:30am 17.9 18.8 17.6 98 0.2 NE 9 11 5 6 1015.5 1015.4 0.0
21/05:00am 17.4 18.5 17.2 99 0.1 ENE 7 9 4 5 1015.4 1015.3 0.0
21/04:48am 17.0 18.5 16.7 98 0.2 ENE 4 7 2 4 1015.4 1015.3 0.0
21/04:30am 16.5 18.6 16.2 98 0.2 CALM 0 0 0 0 1015.3 1015.2 0.0
21/04:16am 16.7 18.1 16.4 98 0.2 ENE 4 7 2 4 1015.2 1015.1 0.0
21/04:00am 17.2 18.2 16.9 98 0.2 NE 7 11 4 6 1015.2 1015.1 0.0
21/03:59am 17.2 18.2 16.9 98 0.2 NE 7 11 4 6 1015.2 1015.1 0.0
21/03:30am 16.3 17.1 15.8 97 0.3 WNW 6 6 3 3 1015.5 1015.4 0.0
21/03:00am 16.9 17.9 16.4 97 0.3 ENE 6 6 3 3 1015.6 1015.5 0.0
21/02:55am 17.2 18.3 16.7 97 0.3 ENE 6 6 3 3 1015.6 1015.5 0.0
21/02:49am 17.6 18.9 17.1 97 0.3 ENE 6 7 3 4 1015.7 1015.6 0.0
21/02:30am 17.4 19.4 16.9 97 0.3 ENE 2 7 1 4 1015.7 1015.6 0.0
21/02:00am 17.4 18.5 16.6 95 0.5 NNE 6 7 3 4 1016.1 1016.0 0.0
21/01:47am 17.6 18.7 16.6 94 0.6 NNE 6 6 3 3 1016.1 1016.0 0.0
21/01:30am 18.0 19.1 17.0 94 0.6 NE 7 7 4 4 1016.2 1016.1 0.0
21/01:00am 18.4 19.5 17.2 93 0.7 ENE 7 9 4 5 1016.4 1016.3 0.0
21/12:30am 18.7 20.0 17.5 93 0.7 ENE 7 9 4 5 1016.6 1016.5 0.0
21/12:00am 19.3 20.2 18.5 95 0.5 E 11 17 6 9 1016.7 1016.6 0.0
 
Date/Time
EDT
Temp
°C
App
Temp
°C
Dew
Point
°C
Rel
Hum
%
Delta-T
°C
Wind Press
QNH
hPa
Press
MSL
hPa
Rain since
9am
mm
Dir  Spd
km/h
Gust
km/h
Spd
kts
Gust
kts
20/11:30pm 19.5 21.5 18.8 96 0.4 E 6 7 3 4 1016.8 1016.7 0.0
20/11:00pm 19.4 21.4 18.7 96 0.4 ESE 6 7 3 4 1016.9 1016.8 0.0
20/10:30pm 19.5 21.3 18.7 95 0.5 ESE 7 9 4 5 1017.0 1016.9 0.0
20/10:11pm 19.4 21.1 18.4 94 0.6 ESE 7 9 4 5 1016.9 1016.8 0.0
20/10:00pm 19.5 20.7 18.3 93 0.7 ESE 9 11 5 6 1016.9 1016.8 0.0
20/09:54pm 19.5 20.7 18.3 93 0.7 E 9 11 5 6 1016.9 1016.8 0.0
20/09:30pm 19.5 21.1 18.2 92 0.8 ESE 7 9 4 5 1016.9 1016.8 0.0
20/09:00pm 19.7 20.9 18.2 91 0.9 SSE 9 13 5 7 1016.7 1016.6 0.0
20/08:30pm 19.9 20.6 17.9 88 1.2 SE 11 15 6 8 1016.4 1016.3 0.0
20/08:00pm 20.0 20.3 18.0 88 1.2 SE 13 15 7 8 1015.9 1015.8 0.0
20/07:30pm 20.0 20.4 18.1 89 1.2 ESE 13 19 7 10 1015.7 1015.6 0.0
20/07:00pm 19.9 19.8 17.9 88 1.2 ESE 15 20 8 11 1015.5 1015.4 0.0
20/06:30pm 20.5 20.8 17.9 85 1.6 ESE 13 19 7 10 1015.3 1015.2 0.0
20/06:00pm 21.3 21.2 17.9 81 2.1 ESE 15 20 8 11 1015.2 1015.1 0.0
20/05:30pm 21.8 21.8 18.0 79 2.4 ESE 15 20 8 11 1015.0 1014.9 0.0
20/05:00pm 21.9 21.4 17.7 77 2.6 ESE 17 20 9 11 1014.9 1014.8 0.0
20/04:30pm 21.3 20.3 17.9 81 2.1 SE 20 24 11 13 1014.8 1014.7 0.0
20/04:00pm 22.4 21.0 18.0 76 2.7 SE 22 28 12 15 1014.9 1014.8 0.0
20/03:30pm 22.7 21.6 17.8 74 3.1 SE 20 28 11 15 1014.7 1014.6 0.0
20/03:00pm 23.0 22.2 18.1 74 3.1 SSE 19 26 10 14 1014.8 1014.7 0.0
20/02:30pm 23.3 22.2 17.7 71 3.5 SSE 20 26 11 14 1015.1 1015.0 0.0
20/02:00pm 23.6 22.8 18.5 73 3.2 SE 20 26 11 14 1015.2 1015.1 0.0
20/01:30pm 22.9 22.2 18.2 75 2.9 SE 19 24 10 13 1015.6 1015.5 0.0
20/01:00pm 22.8 22.4 18.8 78 2.5 SE 19 24 10 13 1015.8 1015.7 0.0
20/12:30pm 23.1 22.9 18.4 75 3.0 SE 17 24 9 13 1015.9 1015.8 0.0
20/12:00pm 22.2 23.3 18.0 77 2.6 SE 9 15 5 8 1016.1 1016.0 0.0
20/11:30am 22.0 22.7 18.0 78 2.5 SE 11 15 6 8 1016.3 1016.2 0.0
20/11:00am 22.2 23.4 18.2 78 2.5 ESE 9 13 5 7 1016.4 1016.3 0.0
20/10:30am 21.5 23.2 18.5 83 1.9 ENE 7 9 4 5 1016.5 1016.4 0.0
20/10:00am 20.8 23.2 20.0 95 0.5 ENE 7 13 4 7 1016.5 1016.4 0.0
20/09:30am 20.0 23.6 19.8 99 0.1 CALM 0 0 0 0 1016.4 1016.3 0.0
20/09:00am 19.5 21.7 19.3 99 0.1 NNE 6 9 3 5 1016.2 1016.1 3.6
20/08:47am 18.8 20.7 18.6 99 0.1 NNE 6 7 3 4 1016.0 1015.9 3.6
20/08:30am 18.7 20.4 18.5 99 0.1 NNE 7 11 4 6 1016.0 1015.9 3.6
20/08:00am 19.0 21.5 19.0 100 0.0 ENE 4 13 2 7 1015.8 1015.7 3.2
20/07:30am 18.9 21.0 18.9 100 0.0 ESE 6 7 3 4 1015.4 1015.3 2.6
20/07:00am 18.8 20.5 18.6 99 0.1 ESE 7 7 4 4 1015.2 1015.1 2.4
20/06:30am 18.8 20.5 18.6 99 0.1 SE 7 9 4 5 1014.9 1014.8 2.0
20/06:00am 19.1 21.0 18.9 99 0.1 SE 7 9 4 5 1014.7 1014.6 1.8
20/05:59am 19.1 21.0 18.9 99 0.1 SE 7 9 4 5 1014.6 1014.5 1.8
20/05:58am 19.1 21.0 18.9 99 0.1 SE 7 9 4 5 1014.6 1014.5 1.8
20/05:37am 19.1 22.3 18.9 99 0.1 CALM 0 0 0 0 1014.5 1014.4 1.8
20/05:30am 19.0 22.2 18.8 99 0.1 CALM 0 0 0 0 1014.6 1014.5 1.8
20/05:15am 19.0 22.2 18.8 99 0.1 CALM 0 0 0 0 1014.5 1014.4 1.8
20/05:04am 18.9 22.0 18.7 99 0.1 CALM 0 0 0 0 1014.5 1014.4 1.8
20/05:00am 18.8 21.9 18.6 99 0.1 CALM 0 0 0 0 1014.5 1014.4 1.8
20/04:30am 18.8 21.9 18.6 99 0.1 CALM 0 6 0 3 1014.5 1014.4 1.8
20/04:00am 19.0 20.8 18.8 99 0.1 SSE 7 7 4 4 1014.6 1014.5 1.8
20/03:41am 19.1 21.0 18.9 99 0.1 SE 7 9 4 5 1014.7 1014.6 1.8
20/03:30am 19.1 21.2 18.9 99 0.1 SE 6 7 3 4 1014.8 1014.7 1.8
20/03:00am 19.2 20.7 19.0 99 0.1 ESE 9 9 5 5 1015.0 1014.9 1.6
20/02:39am 19.3 21.3 19.1 99 0.1 SE 7 9 4 5 1015.2 1015.1 1.4
20/02:30am 19.3 21.3 19.1 99 0.1 SSE 7 9 4 5 1015.2 1015.1 1.4
20/02:00am 19.3 21.4 19.0 98 0.2 E 6 6 3 3 1015.4 1015.3 1.4
20/01:30am 19.4 21.4 19.1 98 0.2 E 7 9 4 5 1015.5 1015.4 1.4
20/01:24am 19.3 21.2 19.0 98 0.2 E 7 9 4 5 1015.6 1015.5 1.4
20/01:00am 19.4 20.9 18.9 97 0.3 E 9 11 5 6 1015.8 1015.7 1.4
20/12:47am 19.5 20.6 18.8 96 0.4 E 11 13 6 7 1015.8 1015.7 1.2
20/12:30am 19.6 21.5 18.9 96 0.4 ESE 7 11 4 6 1015.9 1015.8 1.2
20/12:00am 19.7 21.2 19.0 96 0.4 ESE 9 11 5 6 1016.2 1016.1 1.2
 
Date/Time
EDT
Temp
°C
App
Temp
°C
Dew
Point
°C
Rel
Hum
%
Delta-T
°C
Wind Press
QNH
hPa
Press
MSL
hPa
Rain since
9am
mm
Dir  Spd
km/h
Gust
km/h
Spd
kts
Gust
kts
19/11:30pm 19.7 20.9 19.0 96 0.4 ESE 11 13 6 7 1016.3 1016.2 1.2
19/11:00pm 19.6 20.8 19.1 97 0.3 E 11 13 6 7 1016.4 1016.3 1.2
19/10:44pm 19.6 20.7 18.9 96 0.4 E 11 17 6 9 1016.4 1016.3 1.2
19/10:30pm 19.6 20.0 18.9 96 0.4 E 15 22 8 12 1016.4 1016.3 1.2
19/10:19pm 19.8 20.2 19.0 95 0.5 E 15 19 8 10 1016.5 1016.4 1.2
19/10:00pm 19.9 20.2 18.7 93 0.7 E 15 20 8 11 1016.4 1016.3 1.2
19/09:30pm 20.3 20.5 18.6 90 1.1 E 15 17 8 9 1016.3 1016.2 1.2
19/09:00pm 20.3 20.1 18.4 89 1.2 E 17 24 9 13 1016.1 1016.0 1.2
19/08:30pm 20.4 20.8 18.9 91 0.9 E 15 20 8 11 1015.7 1015.6 1.2
19/08:00pm 20.5 20.4 18.8 90 1.1 ESE 17 22 9 12 1015.5 1015.4 1.2
19/07:30pm 20.5 20.4 18.8 90 1.1 ESE 17 20 9 11 1015.2 1015.1 1.2
19/07:00pm 20.4 19.6 18.5 89 1.2 ESE 20 26 11 14 1015.2 1015.1 1.2
19/06:30pm 21.1 20.5 18.5 85 1.6 ESE 19 24 10 13 1014.9 1014.8 1.2
19/06:00pm 21.4 21.1 18.2 82 2.0 SE 17 20 9 11 1014.5 1014.4 1.2
19/05:30pm 21.9 21.7 18.5 81 2.1 ESE 17 20 9 11 1014.3 1014.2 1.2
19/05:00pm 22.0 21.7 18.2 79 2.4 SE 17 20 9 11 1014.3 1014.2 1.2
19/04:30pm 22.6 22.6 18.2 76 2.8 SE 15 20 8 11 1014.3 1014.2 1.2
19/04:00pm 23.4 23.5 19.1 77 2.7 SE 17 22 9 12 1014.3 1014.2 1.2
19/03:30pm 23.4 23.8 18.9 76 2.9 SSE 15 19 8 10 1014.5 1014.4 1.2
19/03:00pm 22.5 22.8 18.7 79 2.4 SE 15 19 8 10 1014.7 1014.6 1.2
19/02:30pm 22.4 23.7 19.2 82 2.0 ESE 11 19 6 10 1015.0 1014.9 1.2
19/02:00pm 22.0 24.1 20.1 89 1.2 E 9 13 5 7 1015.2 1015.1 1.2
19/01:38pm 21.2 23.1 19.8 92 0.9 E 9 11 5 6 1015.5 1015.4 1.2
19/01:30pm 21.1 23.1 19.9 93 0.8 E 9 13 5 7 1015.5 1015.4 1.2
19/01:13pm 21.3 23.4 20.1 93 0.8 SE 9 13 5 7 1015.8 1015.7 0.8
19/01:00pm 21.4 24.1 20.6 95 0.5 ENE 7 9 4 5 1015.9 1015.8 0.8
19/12:30pm 21.1 23.5 20.8 98 0.2 E 9 11 5 6 1016.2 1016.1 0.8
19/12:00pm 21.1 23.9 20.9 99 0.1 NW 7 11 4 6 1016.4 1016.3 0.8
19/11:49am 20.3 22.8 20.3 100 0.0 NW 7 11 4 6 1016.5 1016.4 0.8
19/11:30am 20.0 22.4 20.0 100 0.0 WNW 7 11 4 6 1016.7 1016.6 0.6
19/11:00am 20.0 21.6 20.0 100 0.0 W 11 15 6 8 1016.7 1016.6 0.4
19/10:30am 19.5 20.5 19.5 100 0.0 W 13 17 7 9 1016.5 1016.4 0.2
19/10:00am 19.1 19.9 19.1 100 0.0 W 13 19 7 10 1016.4 1016.3 0.0
19/09:30am 18.9 19.6 18.9 100 0.0 W 13 17 7 9 1016.3 1016.2 0.0
19/09:00am 18.7 19.7 18.7 100 0.0 WSW 11 15 6 8 1016.1 1016.0 9.4
19/08:30am 18.7 19.7 18.7 100 0.0 W 11 15 6 8 1015.9 1015.8 8.8
19/08:00am 18.5 19.1 18.5 100 0.0 W 13 17 7 9 1016.0 1015.9 7.6
19/07:30am 18.4 19.3 18.4 100 0.0 WSW 11 13 6 7 1015.8 1015.7 3.8
19/07:00am 18.4 19.3 18.4 100 0.0 W 11 15 6 8 1015.6 1015.5 3.2
19/06:30am 18.4 19.3 18.4 100 0.0 WSW 11 15 6 8 1015.5 1015.4 3.2
19/06:00am 18.3 19.2 18.3 100 0.0 WSW 11 13 6 7 1015.4 1015.3 2.8
19/05:30am 18.3 19.2 18.3 100 0.0 WSW 11 15 6 8 1015.3 1015.2 2.0
19/05:00am 18.3 19.2 18.3 100 0.0 SW 11 15 6 8 1015.3 1015.2 1.6
19/04:56am 18.3 19.2 18.3 100 0.0 SW 11 15 6 8 1015.3 1015.2 1.6
19/04:30am 18.2 18.6 18.2 100 0.0 SW 13 17 7 9 1015.4 1015.3 1.2
19/04:00am 18.3 18.7 18.1 99 0.1 SSW 13 17 7 9 1015.6 1015.5 1.0
19/03:30am 18.3 18.7 18.1 99 0.1 S 13 15 7 8 1015.8 1015.7 1.0
19/03:12am 18.3 19.1 18.1 99 0.1 SSW 11 13 6 7 1015.8 1015.7 1.0
19/03:00am 18.3 19.1 18.1 99 0.1 SSW 11 13 6 7 1016.0 1015.9 1.0
19/02:55am 18.3 19.1 18.1 99 0.1 SSW 11 13 6 7 1016.0 1015.9 1.0
19/02:30am 18.3 19.4 18.1 99 0.1 SSW 9 13 5 7 1016.2 1016.1 1.0
19/02:02am 18.3 18.7 18.1 99 0.1 SSE 13 15 7 8 1016.4 1016.3 1.0
19/02:00am 18.3 18.7 18.1 99 0.1 SSE 13 15 7 8 1016.5 1016.4 1.0
19/01:30am 18.2 18.2 18.0 99 0.1 SE 15 20 8 11 1016.7 1016.6 1.0
19/01:00am 18.3 18.7 18.1 99 0.1 SSE 13 15 7 8 1016.9 1016.8 0.8
19/12:55am 18.3 18.7 18.1 99 0.1 SSE 13 15 7 8 1016.9 1016.8 0.8
19/12:30am 18.3 19.1 18.1 99 0.1 SE 11 17 6 9 1017.1 1017.0 0.8
19/12:00am 18.4 18.8 18.2 99 0.1 SE 13 17 7 9 1017.5 1017.4 0.6
 
Date/Time
EDT
Temp
°C
App
Temp
°C
Dew
Point
°C
Rel
Hum
%
Delta-T
°C
Wind Press
QNH
hPa
Press
MSL
hPa
Rain since
9am
mm
Dir  Spd
km/h
Gust
km/h
Spd
kts
Gust
kts
18/11:50pm 18.4 18.4 18.2 99 0.1 SE 15 19 8 10 1017.6 1017.5 0.6
18/11:30pm 18.4 18.0 18.1 98 0.2 SE 17 22 9 12 1017.7 1017.6 0.6
18/11:13pm 18.4 18.4 18.1 98 0.2 SE 15 20 8 11 1017.7 1017.6 0.6
18/11:00pm 18.5 18.5 18.2 98 0.2 SE 15 20 8 11 1017.6 1017.5 0.6
18/10:30pm 18.5 18.5 18.2 98 0.2 SE 15 22 8 12 1017.7 1017.6 0.6
18/10:00pm 18.5 18.2 18.2 98 0.2 SE 17 22 9 12 1017.8 1017.7 0.6
18/09:30pm 18.5 17.6 18.2 98 0.2 SE 20 28 11 15 1017.6 1017.5 0.6
18/09:00pm 18.4 17.6 18.1 98 0.2 SE 19 26 10 14 1017.6 1017.5 0.6
18/08:30pm 18.4 17.5 18.1 98 0.2 SE 20 28 11 15 1017.3 1017.2 0.6
18/08:00pm 18.4 17.0 17.9 97 0.3 SE 22 28 12 15 1017.1 1017.0 0.6
18/07:34pm 18.5 16.8 18.0 97 0.3 SE 24 33 13 18 1016.9 1016.8 0.4
18/07:30pm 18.6 16.1 18.1 97 0.3 SE 28 35 15 19 1016.9 1016.8 0.4
18/07:00pm 18.6 17.3 18.1 97 0.3 SE 22 32 12 17 1016.8 1016.7 0.4
18/06:30pm 18.6 17.4 18.3 98 0.2 SE 22 32 12 17 1016.8 1016.7 0.4
18/06:00pm 18.7 17.4 18.2 97 0.3 SE 22 28 12 15 1016.6 1016.5 0.4
18/05:30pm 18.7 16.5 17.9 95 0.5 SE 26 33 14 18 1016.6 1016.5 0.4
18/05:25pm 18.8 16.7 18.0 95 0.5 SE 26 33 14 18 1016.6 1016.5 0.4
18/05:00pm 18.9 16.4 18.1 95 0.5 SE 28 33 15 18 1016.6 1016.5 0.4

Other formats

Comma delimited format used in spreadsheet applications
http://www.bom.gov.au/fwo/IDV60801/IDV60801.94912.axf

JavaScript Object Notation format (JSON) in row-major order
http://www.bom.gov.au/fwo/IDV60801/IDV60801.94912.json

Data quality

Most of these data are generated automatically and are frequently updated. Quality checks on data are not normally performed. It is possible for incorrect values to appear. Refer to information at About Latest Weather Observations and please check the disclaimer before using these data.